Weather observations for the past three days for
Versailles Darke County Airport
Imperial (Metric)
Date Time (edt) Wind (mph) Vis. (mi.) Weather Sky Cond. Temperature (ºF) Relative Humidity Wind Chill (°F) Heat Index (°F) Pressure Precipitation (in)
Air Dwpt 6 hour altimeter (in) sea level (mb) 1 hr 3 hr 6 hr
Max. Min.
04 01:15 S 8 10.00 Fair CLR 50 41 71% 47 29.85 0.0
04 00:55 S 7 10.00 A Few Clouds FEW065 50 41 71% 48 29.85 0.0
04 00:35 S 7 10.00 Mostly Cloudy BKN065 BKN075 50 42.8 76% 48 29.85 0.0
04 00:15 S 7 10.00 Overcast BKN075 OVC100 50 41 71% 48 29.86 0.0
03 23:55 S 9 10.00 Overcast SCT065 OVC090 50 42.8 76% 47 29.87 0.0
03 23:35 S 8 10.00 Overcast SCT070 OVC100 50 42.8 76% 47 29.87 0.0
03 23:15 S 9 10.00 Overcast BKN070 OVC100 50 42.8 76% 47 29.88 0.0
03 22:55 SE 9 10.00 Overcast OVC075 48.2 42.8 82% 45 29.89 0.0
03 22:35 SE 9 10.00 Overcast OVC075 48.2 42.8 82% 45 29.89 0.0
03 22:15 S 9 10.00 Overcast OVC075 48.2 44.6 87% 45 29.89 0.0
03 21:55 SE 9 10.00 Overcast OVC075 48.2 44.6 87% 45 29.89 0.0
03 21:35 SE 8 10.00 Overcast OVC075 48.2 44.6 87% 45 29.9 0.0
03 21:15 SE 8 10.00 Overcast OVC075 48.2 44.6 87% 45 29.9 0.0
03 20:55 SE 8 10.00 Overcast FEW045 FEW050 OVC075 48.2 46.4 94% 45 29.9 0.0
03 20:35 SE 9 10.00 Overcast SCT042 BKN050 OVC080 48.2 46.4 94% 45 29.9 0.0
03 20:15 S 9 10.00 Overcast FEW046 OVC080 48.2 46.4 94% 45 29.9 0.0
03 19:55 SE 12 10.00 Overcast FEW044 FEW050 OVC080 48.2 46.4 60.3 46.2 94% 44 29.89 0.0
03 19:35 SE 9 10.00 Overcast SCT050 BKN070 OVC080 48.2 46.4 94% 45 29.9 0.0
03 19:15 SE 7 10.00 Overcast SCT070 OVC095 48.2 46.4 94% 46 29.9 0.0
03 18:55 SE 9 10.00 Overcast OVC095 48.2 46.4 94% 45 29.9 0.0
03 18:35 SE 8 10.00 Overcast OVC095 48.2 46.4 94% 45 29.92 0.0
03 18:15 SE 9 10.00 Mostly Cloudy FEW050 BKN095 48.2 46.4 94% 45 29.93 0.0
03 17:55 S 6 10.00 Light Rain FEW035 SCT049 SCT085 46.4 46.4 100% 44 29.94 0.0 0.02
03 17:35 Vrbl 1 4.00 Light Rain Fog/Mist SCT036 SCT041 46.4 44.6 93% 29.96 0.0
03 17:15 SW 8 6.00 Light Rain Fog/Mist CLR 46.4 42.8 87% 43 29.99 0.0
03 16:55 SW 20 G 25 10.00 Light Rain CLR 50 41 71% 44 29.99 0.0
03 16:35 SW 22 G 32 10.00 A Few Clouds and Breezy FEW070 55.4 35.6 47% 29.98 0.0
03 16:15 SW 14 G 25 10.00 A Few Clouds FEW070 57.2 32 39% 29.96 0.0
03 15:55 SW 17 G 24 10.00 A Few Clouds FEW070 57.2 32 39% 29.97 0.0
03 15:35 SW 16 G 23 10.00 A Few Clouds FEW070 59 32 36% 29.97 0.0
03 15:15 SW 16 G 26 10.00 Fair CLR 59 32 36% 29.97 0.0
03 14:35 SW 17 G 26 10.00 Fair CLR 59 32 36% 29.99 0.0
03 14:15 SW 18 G 30 10.00 Fair CLR 59 32 36% 30 0.0
03 13:55 SW 14 G 26 10.00 Fair CLR 59 30.2 59.5 40.8 34% 30.01 0.0
03 13:35 SW 14 G 28 10.00 Fair CLR 59 32 36% 30.02 0.0
03 13:15 SW 14 G 23 10.00 Fair CLR 57.2 32 39% 30.02 0.0
03 12:55 SW 14 G 22 10.00 Fair CLR 59 33.8 39% 30.03 0.0
03 12:35 SW 14 G 23 10.00 Fair CLR 57.2 33.8 41% 30.04 0.0
03 12:15 SW 18 G 25 10.00 Fair CLR 57.2 32 39% 30.04 0.0
03 11:55 SW 16 G 22 10.00 Fair CLR 57.2 33.8 41% 30.05 0.0
03 11:35 SW 17 10.00 Fair CLR 55.4 33.8 44% 30.05 0.0
03 11:15 SW 16 G 21 10.00 Fair CLR 55.4 33.8 44% 30.05 0.0
03 10:55 SW 16 10.00 Fair CLR 55.4 33.8 44% 30.05 0.0
03 10:35 SW 10 G 16 10.00 Fair CLR 53.6 33.8 47% 30.05 0.0
03 10:15 SW 14 G 18 10.00 Fair CLR 51.8 33.8 50% 30.05 0.0
03 09:55 SW 12 G 17 10.00 Fair CLR 51.8 33.8 50% 30.06 0.0
03 09:35 SW 12 G 17 10.00 Fair CLR 50 33.8 54% 46 30.06 0.0
03 09:15 SW 12 G 18 10.00 Fair CLR 48.2 32 54% 44 30.06 0.0
03 08:35 SW 10 10.00 Fair CLR 44.6 32 61% 40 30.06 0.0
03 08:15 SW 9 10.00 Fair CLR 42.8 32 66% 38 30.06 0.0
03 07:55 SW 10 10.00 Fair CLR 41 32 40.8 34.3 70% 35 30.06 0.0
03 07:35 SW 12 10.00 Fair CLR 41 30.2 66% 35 30.06 0.0
03 07:15 SW 7 10.00 Fair CLR 39.2 30.2 70% 35 30.05 0.0
03 06:55 SW 7 10.00 Fair CLR 37.4 30.2 75% 33 30.05 0.0
03 06:35 SW 6 10.00 Fair CLR 37.4 30.2 75% 33 30.04 0.0
03 06:15 SW 5 10.00 Fair CLR 37.4 30.2 75% 34 30.04 0.0
03 05:55 SW 5 10.00 Fair CLR 37.4 30.2 75% 34 30.03 0.0
03 05:35 SW 5 10.00 Fair CLR 37.4 30.2 75% 34 30.04 0.0
03 05:15 SW 6 10.00 Fair CLR 37.4 30.2 75% 33 30.04 0.0
03 04:55 SW 5 10.00 Fair CLR 37.4 30.2 75% 34 30.04 0.0
03 04:35 SW 5 10.00 Fair CLR 35.6 30.2 81% 32 30.04 0.0
03 04:15 SW 5 10.00 Fair CLR 33.8 32 93% 30 30.04 0.0
03 03:55 SW 5 10.00 Fair CLR 35.6 32 87% 32 30.04 0.0
03 03:35 SW 3 10.00 Fair CLR 35.6 32 87% 30.04 0.0
03 03:15 SW 5 10.00 A Few Clouds FEW070 35.6 32 87% 32 30.04 0.0
03 02:55 SW 3 10.00 Partly Cloudy SCT070 35.6 32 87% 30.05 0.0
03 02:35 SW 3 10.00 Mostly Cloudy FEW060 BKN070 35.6 33.8 93% 30.05 0.0
03 02:15 SW 3 10.00 Mostly Cloudy SCT070 BKN080 35.6 33.8 93% 30.06 0.0
03 01:55 SW 5 10.00 Mostly Cloudy SCT070 BKN080 35.6 32 46.4 35.1 87% 32 30.06 0.0
03 01:35 SW 3 10.00 A Few Clouds FEW070 35.6 33.8 93% 30.06 0.0
03 01:15 SW 5 10.00 A Few Clouds FEW070 35.6 33.8 93% 32 30.06 0.0
03 00:55 SW 5 10.00 Fair CLR 35.6 33.8 93% 32 30.06 0.0
03 00:35 SW 3 10.00 Fair CLR 35.6 33.8 93% 30.06 0.0
03 00:15 SW 5 10.00 Fair CLR 35.6 33.8 93% 32 30.06 0.0
02 23:55 SW 5 10.00 Fair CLR 35.6 35.6 100% 32 30.06 0.0
02 23:35 SW 3 10.00 Fair CLR 35.6 35.6 100% 30.06 0.0
02 23:15 SW 5 10.00 Fair CLR 37.4 35.6 93% 34 30.06 0.0
02 22:55 SW 2 10.00 Fair CLR 37.4 35.6 93% 30.06 0.0
02 22:35 S 2 10.00 Fair CLR 39.2 35.6 87% 30.06 0.0
02 22:15 S 2 10.00 Fair CLR 39.2 32 75% 30.06 0.0
02 21:55 S 3 10.00 Fair CLR 39.2 33.8 81% 30.06 0.0
02 21:35 S 2 10.00 A Few Clouds FEW070 41 32 70% 30.06 0.0
02 21:15 SW 2 10.00 Partly Cloudy SCT070 42.8 30.2 61% 30.05 0.0
02 20:56 W 2 10.00 A Few Clouds FEW070 42.8 30.2 61% 30.05 0.0
02 20:36 N 1 10.00 Fair CLR 44.6 32 61% 30.05 0.0
02 20:15 NW 3 10.00 Fair CLR 44.6 30.2 57% 30.05 0.0
02 19:35 NW 6 10.00 A Few Clouds FEW060 FEW070 46.4 28.4 50% 44 30.05 0.0
02 19:15 N 7 10.00 Mostly Cloudy BKN070 46.4 28.4 50% 43 30.05 0.0
02 18:55 NW 8 10.00 Overcast OVC070 46.4 26.6 46% 43 30.05 0.0
02 18:35 NW 8 10.00 Overcast OVC070 46.4 28.4 50% 43 30.05 0.0
02 18:15 NW 10 10.00 Overcast OVC070 46.4 28.4 50% 42 30.05 0.0
02 17:55 N 13 G 17 10.00 Overcast OVC070 46.4 30.2 53% 41 30.05 0.0
02 17:36 NW 13 10.00 Overcast OVC070 46.4 28.4 50% 41 30.05 0.0
02 17:15 NW 9 10.00 Overcast OVC060 46.4 28.4 50% 42 30.05 0.0
02 16:35 NW 10 G 17 10.00 Overcast SCT055 OVC065 46.4 28.4 50% 42 30.05 0.0
02 16:15 NW 12 G 16 10.00 Overcast OVC055 46.4 26.6 46% 42 30.05 0.0
02 15:55 NW 10 G 17 10.00 Overcast OVC055 46.4 28.4 50% 42 30.05 0.0
02 15:35 N 14 10.00 Overcast BKN055 OVC065 46.4 28.4 50% 41 30.05 0.0
02 15:15 NW 13 G 18 10.00 Overcast OVC060 46.4 26.6 46% 41 30.06 0.0
02 14:35 NW 9 G 18 10.00 Mostly Cloudy BKN050 46.4 28.4 50% 42 30.06 0.0
02 14:15 NW 8 G 20 10.00 Overcast OVC060 46.4 28.4 50% 43 30.07 0.0
02 13:55 N 9 10.00 Mostly Cloudy BKN060 46.4 28.4 47.5 35.2 50% 42 30.07 0.0
02 13:35 NW 13 G 18 10.00 Mostly Cloudy BKN050 46.4 26.6 46% 41 30.07 0.0
02 13:15 N 8 G 17 10.00 Mostly Cloudy BKN050 46.4 28.4 50% 43 30.08 0.0
02 12:55 NW 12 G 20 10.00 Partly Cloudy SCT050 46.4 30.2 53% 42 30.08 0.0
02 12:35 NW 12 G 17 10.00 A Few Clouds FEW050 46.4 30.2 53% 42 30.08 0.0
02 12:15 NW 10 G 16 10.00 A Few Clouds FEW045 44.6 30.2 57% 40 30.09 0.0
02 11:55 N 12 10.00 Fair CLR 44.6 32 61% 39 30.09 0.0
02 11:35 Vrbl 5 10.00 A Few Clouds FEW037 42.8 30.2 61% 41 30.09 0.0
02 11:15 NW 13 G 17 10.00 Fair CLR 42.8 30.2 61% 37 30.09 0.0
02 10:55 N 9 10.00 Fair CLR 42.8 32 66% 38 30.09 0.0
02 10:35 N 10 10.00 Fair CLR 42.8 32 66% 38 30.09 0.0
02 10:15 Vrbl 6 10.00 Fair CLR 41 32 70% 38 30.09 0.0
02 09:55 N 6 10.00 Fair CLR 41 32 70% 38 30.09 0.0
02 09:35 N 7 10.00 Fair CLR 39.2 32 75% 35 30.09 0.0
02 08:55 NW 7 10.00 Fair CLR 37.4 32 81% 33 30.08 0.0
02 08:35 NW 9 10.00 Fair CLR 37.4 30.2 75% 31 30.08 0.0
02 08:15 NW 8 10.00 Fair CLR 35.6 30.2 81% 30 30.07 0.0
02 07:55 NW 7 10.00 Fair CLR 35.6 28.4 39.2 33.4 75% 31 30.06 0.0
02 07:35 NW 7 10.00 Fair CLR 33.8 28.4 81% 28 30.06 0.0
02 07:15 NW 6 10.00 Fair CLR 33.8 28.4 81% 29 30.05 0.0
02 06:55 NW 6 10.00 Fair CLR 33.8 28.4 81% 29 30.05 0.0
02 06:35 NW 7 10.00 Fair CLR 33.8 28.4 81% 28 30.05 0.0
02 06:15 NW 7 10.00 Fair CLR 33.8 28.4 81% 28 30.05 0.0
02 05:51 NW 7 10.00 Fair CLR 33.8 28.4 81% 28 30.05 0.0
02 05:35 NW 7 10.00 Fair CLR 35.6 30.2 81% 31 30.05 0.0
02 05:15 NW 7 10.00 A Few Clouds FEW060 35.6 30.2 81% 31 30.05 0.0
02 04:56 NW 8 10.00 Mostly Cloudy SCT060 BKN075 37.4 30.2 75% 32 30.05 0.0
02 04:35 NW 9 10.00 Overcast OVC075 37.4 30.2 75% 31 30.05 0.0
02 04:15 NW 7 10.00 Overcast OVC075 37.4 32 81% 33 30.05 0.0
02 03:55 NW 5 10.00 Overcast OVC075 39.2 32 75% 36 30.05 0.0
02 03:35 W 3 10.00 Overcast FEW060 OVC075 39.2 32 75% 30.04 0.0
02 03:15 W 5 10.00 Overcast OVC075 37.4 32 81% 34 30.04 0.0
02 02:55 NW 5 10.00 Overcast SCT065 OVC075 37.4 32 81% 34 30.05 0.0
02 02:35 NW 6 10.00 Overcast OVC065 37.4 32 81% 33 30.05 0.0
02 02:15 NW 6 10.00 Overcast OVC070 39.2 32 75% 36 30.05 0.0
02 01:55 NW 6 10.00 Overcast OVC070 39.2 32 45.5 39 75% 36 30.05 0.0
02 01:35 NW 6 10.00 Overcast OVC070 39.2 32 75% 36 30.06 0.0
02 01:15 NW 6 10.00 Overcast OVC070 39.2 32 75% 36 30.06 0.0
02 00:55 W 6 10.00 Mostly Cloudy BKN070 39.2 32 75% 36 30.06 0.0
02 00:36 NW 7 10.00 Fair CLR 39.2 32 75% 35 30.06 0.0
02 00:15 NW 7 10.00 A Few Clouds FEW075 39.2 32 75% 35 30.05 0.0
01 23:55 NW 7 10.00 A Few Clouds FEW075 41 32 70% 37 30.06 0.0
01 23:35 NW 8 10.00 Fair CLR 41 32 70% 36 30.06 0.0
01 23:15 W 6 10.00 Fair CLR 41 32 70% 38 30.06 0.0
01 22:55 NW 6 10.00 Fair CLR 41 33.8 76% 38 30.06 0.0
01 22:35 NW 7 10.00 Fair CLR 42.8 33.8 71% 39 30.05 0.0
01 22:15 NW 8 10.00 Fair CLR 42.8 33.8 71% 39 30.04 0.0
01 21:55 NW 8 10.00 Fair CLR 42.8 33.8 71% 39 30.03 0.0
01 21:35 NW 8 10.00 Fair CLR 44.6 33.8 66% 41 30.02 0.0
01 21:15 NW 8 10.00 Partly Cloudy SCT041 44.6 37.4 76% 41 30.02 0.0
01 20:55 NW 7 10.00 A Few Clouds FEW041 44.6 39.2 81% 41 30 0.0
01 20:35 NW 5 10.00 Partly Cloudy FEW075 SCT090 44.6 39.2 81% 43 29.99 0.0
01 20:15 W 7 10.00 Mostly Cloudy SCT080 BKN100 44.6 39.2 81% 41 30 0.0
01 19:55 W 5 10.00 Overcast SCT046 BKN080 OVC100 44.6 39.2 51.1 44.4 81% 43 30 0.0
01 19:35 N 17 G 26 9.00 Light Rain SCT037 BKN065 OVC080 46.4 37.4 71% 40 30 0.0
01 19:15 W 13 G 17 10.00 Overcast BKN080 OVC090 48.2 35.6 62% 43 29.99 0.0
01 18:55 W 9 10.00 Mostly Cloudy FEW065 BKN080 48.2 35.6 62% 45 29.99 0.0
01 18:35 W 13 10.00 Overcast BKN065 BKN075 OVC085 48.2 35.6 62% 43 29.99 0.0
01 18:15 W 14 G 20 10.00 Overcast SCT042 BKN048 OVC080 48.2 35.6 62% 43 29.99 0.0
01 17:55 NW 13 10.00 Overcast SCT048 OVC080 50 35.6 58% 46 29.98 0.0
01 17:35 NW 15 G 21 10.00 Overcast FEW044 OVC080 51.8 35.6 54% 29.98 0.0
01 17:15 NW 12 G 20 10.00 Overcast FEW044 FEW050 OVC080 50 35.6 58% 46 29.98 0.0
01 16:55 NW 6 G 17 10.00 Overcast OVC070 50 35.6 58% 48 29.98 0.0
01 16:35 NW 12 10.00 Overcast OVC070 50 37.4 62% 46 29.98 0.0
01 16:15 NW 9 10.00 Overcast FEW048 BKN060 OVC070 48.2 37.4 66% 45 29.98 0.0
01 15:55 NW 10 G 18 10.00 Mostly Cloudy BKN046 BKN060 48.2 35.6 62% 44 29.98 0.0
01 15:35 N 14 10.00 Partly Cloudy SCT046 SCT050 SCT060 48.2 37.4 66% 43 29.98 0.0
01 15:15 NW 15 10.00 Mostly Cloudy BKN037 BKN045 BKN050 48.2 39.2 71% 43 29.98 0.0
01 14:55 N 13 10.00 Mostly Cloudy SCT032 BKN042 BKN055 48.2 39.2 71% 43 29.98 0.0
01 14:35 N 14 10.00 Mostly Cloudy SCT034 BKN040 BKN048 48.2 41 76% 43 29.98 0.0
01 14:15 N 14 G 18 10.00 Overcast BKN030 BKN036 OVC048 46.4 42.8 87% 41 29.97 0.0
01 13:55 N 14 10.00 Overcast SCT023 OVC029 44.6 41 47.5 41.7 87% 39 29.97 0.0
01 13:35 N 14 10.00 Overcast SCT016 OVC023 44.6 42.8 93% 39 29.96 0.0
01 13:15 N 15 10.00 Overcast BKN012 OVC018 42.8 42.8 100% 36 29.96 0.0
01 12:55 N 14 10.00 Overcast BKN010 OVC016 42.8 42.8 100% 36 29.96 0.0
01 12:35 NW 16 G 22 10.00 Overcast OVC010 42.8 42.8 100% 36 29.95 0.0
01 12:15 N 15 10.00 Overcast OVC010 42.8 42.8 100% 36 29.94 0.0
01 11:55 N 15 10.00 Overcast BKN008 OVC013 42.8 42.8 100% 36 29.93 0.0
01 11:35 N 14 10.00 Overcast OVC006 42.8 42.8 100% 36 29.92 0.0
01 11:15 N 17 G 24 10.00 Overcast OVC006 42.8 42.8 100% 35 29.91 0.0
01 10:55 NW 17 G 23 10.00 Overcast BKN006 BKN024 OVC041 42.8 42.8 100% 35 29.9 0.0 0.02
01 10:35 NW 13 1.75 Rain Fog/Mist SCT012 BKN028 OVC040 44.6 44.6 100% 39 29.88 0.0
01 10:15 W 10 7.00 Light Rain SCT017 BKN035 OVC040 48.2 48.2 100% 44 29.87 0.0
01 09:55 SW 7 5.00 Light Rain Fog/Mist SCT037 BKN044 BKN060 46.4 46.4 100% 43 29.86 0.0 0.01
01 09:35 SW 9 5.00 Light Rain Fog/Mist FEW017 SCT026 BKN038 46.4 46.4 100% 42 29.86 0.0
01 09:15 SW 8 10.00 Light Rain BKN017 OVC024 46.4 46.4 100% 43 29.86 0.0
01 08:55 SW 9 7.00 Light Rain Fog/Mist SCT022 OVC033 46.4 46.4 100% 42 29.87 0.0 0.02
01 08:35 SW 8 4.00 Light Rain Fog/Mist BKN035 OVC046 46.4 46.4 100% 43 29.87 0.0
01 08:15 SW 7 6.00 Light Rain Fog/Mist FEW037 BKN048 OVC050 46.4 46.4 100% 43 29.86 0.0
01 07:55 SW 5 10.00 Overcast SCT036 BKN047 OVC065 46.4 46.4 49.8 45.7 100% 45 29.86 0.0 0.04
01 07:35 S 6 6.00 Light Rain Fog/Mist OVC036 46.4 46.4 100% 44 29.87 0.0
01 07:15 SW 2 6.00 Light Rain Fog/Mist BKN038 BKN046 OVC050 46.4 46.4 100% 29.87 0.0
01 06:55 SW 5 6.00 Light Rain Fog/Mist BKN038 BKN046 OVC060 46.4 46.4 100% 45 29.88 0.0
01 06:35 SW 5 9.00 Light Rain SCT036 BKN043 OVC048 46.4 46.4 100% 45 29.88 0.0
01 06:15 W 2 10.00 Light Rain SCT038 BKN050 46.4 46.4 100% 29.88 0.0
01 05:55 W 6 10.00 Light Rain FEW038 FEW046 OVC050 46.4 46.4 100% 44 29.89 0.0
01 05:35 SE 2 10.00 Overcast FEW040 SCT046 OVC060 48.2 46.4 94% 29.88 0.0
01 05:15 SW 3 10.00 Light Rain SCT040 BKN048 OVC060 48.2 41 76% 29.89 0.0
01 04:55 SW 2 10.00 Light Rain FEW003 SCT040 OVC049 48.2 41 76% 29.9 0.0
01 04:35 W 3 10.00 Overcast FEW045 BKN060 OVC070 48.2 41 76% 29.9 0.0
01 04:15 W 2 10.00 Overcast FEW043 FEW050 OVC070 48.2 41 76% 29.9 0.0
01 03:55 SW 3 10.00 Overcast SCT044 BKN050 OVC070 48.2 39.2 71% 29.9 0.0
01 03:35 NW 8 10.00 Overcast SCT047 BKN060 OVC065 50 39.2 67% 47 29.9 0.0
01 03:15 SW 8 10.00 Overcast OVC070 50 39.2 67% 47 29.9 0.0
01 02:55 SW 8 10.00 Overcast OVC070 50 39.2 67% 47 29.91 0.0
01 02:35 S 8 10.00 Overcast OVC080 48.2 39.2 71% 45 29.92 0.0
01 02:15 S 7 10.00 Overcast BKN065 OVC080 48.2 39.2 71% 46 29.92 0.0
01 01:55 S 7 10.00 Overcast BKN070 OVC090 48.2 39.2 54.1 45.9 71% 46 29.93 0.0
Date Time (edt) Wind (mph) Vis. (mi.) Weather Sky Cond. Air Dwpt Max. Min. Relative Humidity Wind Chill (°F) Heat Index (°F) altimeter (in) sea level (mb) 1 hr 3 hr 6 hr
6 hour
Temperature (ºF) Pressure Precipitation (in)